createdAt,value
2019-05-22T00:01:21.191Z,1.20
2019-05-22T00:03:50.965Z,1.30
2019-05-22T00:06:24.098Z,1.23
2019-05-22T00:08:53.829Z,1.33
2019-05-22T00:11:23.408Z,1.40
2019-05-22T00:13:53.546Z,1.48
2019-05-22T00:16:23.171Z,1.30
2019-05-22T00:18:53.139Z,1.27
2019-05-22T00:21:23.131Z,1.60
2019-05-22T00:23:52.947Z,1.20
2019-05-22T00:26:22.566Z,1.20
2019-05-22T00:28:52.602Z,1.15
2019-05-22T00:31:22.330Z,1.20
2019-05-22T00:33:52.336Z,1.30
2019-05-22T00:36:23.212Z,1.23
2019-05-22T00:38:52.840Z,1.20
2019-05-22T00:41:22.686Z,1.10
2019-05-22T00:43:57.548Z,1.20
2019-05-22T00:46:27.083Z,1.30
2019-05-22T00:48:57.857Z,1.10
2019-05-22T00:51:28.463Z,1.10
2019-05-22T00:54:14.543Z,1.12
2019-05-22T00:56:50.675Z,1.60
2019-05-22T00:59:25.660Z,1.20
2019-05-22T01:01:56.501Z,1.20
2019-05-22T01:04:26.356Z,1.00
2019-05-22T01:06:55.974Z,1.12
2019-05-22T01:09:29.141Z,1.20
2019-05-22T01:11:58.811Z,1.20
2019-05-22T01:14:41.894Z,1.40
2019-05-22T01:16:59.384Z,1.20
2019-05-22T01:19:30.229Z,1.30
2019-05-22T01:24:40.528Z,1.33
2019-05-22T01:27:12.943Z,1.27
2019-05-22T01:29:42.537Z,1.60
2019-05-22T01:32:12.602Z,1.40
2019-05-22T01:34:42.047Z,1.30
2019-05-22T01:37:12.023Z,1.40
2019-05-22T01:39:45.579Z,1.40
2019-05-22T01:42:15.815Z,1.20
2019-05-22T01:44:59.834Z,1.42
2019-05-22T01:47:17.579Z,1.40
2019-05-22T01:49:49.379Z,1.60
2019-05-22T01:52:19.962Z,1.42
2019-05-22T01:54:49.873Z,1.30
2019-05-22T01:57:19.559Z,1.30
2019-05-22T01:59:50.134Z,1.33
2019-05-22T02:02:19.927Z,1.30
2019-05-22T02:04:50.213Z,1.37
2019-05-22T02:07:20.578Z,1.35
2019-05-22T02:09:50.514Z,1.45
2019-05-22T02:12:27.351Z,1.42
2019-05-22T02:14:57.287Z,1.70
2019-05-22T02:17:28.519Z,1.20
2019-05-22T02:19:58.815Z,1.40
2019-05-22T02:22:32.123Z,1.60
2019-05-22T02:25:01.868Z,1.30
2019-05-22T02:27:31.531Z,1.10
2019-05-22T02:30:01.245Z,1.23
2019-05-22T02:32:30.942Z,1.40
2019-05-22T02:35:00.517Z,1.40
2019-05-22T02:37:30.229Z,1.77
2019-05-22T02:39:59.857Z,1.50
2019-05-22T02:42:30.103Z,1.60
2019-05-22T02:45:00.264Z,1.40
2019-05-22T02:47:30.069Z,1.58
2019-05-22T02:49:59.795Z,1.30
2019-05-22T02:52:30.409Z,1.60
2019-05-22T02:55:00.188Z,1.40
2019-05-22T02:57:30.045Z,1.60
2019-05-22T02:59:59.741Z,1.58
2019-05-22T03:02:29.294Z,1.30
2019-05-22T03:04:59.268Z,1.48
2019-05-22T03:07:29.446Z,1.50
2019-05-22T03:09:59.846Z,1.58
2019-05-22T03:12:30.142Z,1.50
2019-05-22T03:15:07.607Z,1.33
2019-05-22T03:17:37.873Z,1.70
2019-05-22T03:20:09.614Z,1.83
2019-05-22T03:22:50.946Z,2.00
2019-05-22T03:25:21.662Z,1.80
2019-05-22T03:27:51.766Z,1.50
2019-05-22T03:30:29.149Z,1.67
2019-05-22T03:32:59.445Z,1.85
2019-05-22T03:35:29.451Z,1.83
2019-05-22T03:38:00.200Z,1.90
2019-05-22T03:40:30.233Z,1.70
2019-05-22T03:43:03.309Z,1.58
2019-05-22T03:45:40.147Z,1.70
2019-05-22T03:48:11.052Z,1.85
2019-05-22T03:50:40.872Z,1.62
2019-05-22T03:53:15.399Z,2.22
2019-05-22T03:55:46.117Z,2.00
2019-05-22T03:58:16.062Z,1.77
2019-05-22T04:00:45.899Z,1.60
2019-05-22T04:03:16.552Z,1.62
2019-05-22T04:05:46.507Z,1.62
2019-05-22T04:08:16.390Z,1.60
2019-05-22T04:10:53.880Z,1.90
2019-05-22T04:13:23.538Z,1.50
2019-05-22T04:15:53.127Z,1.80
2019-05-22T04:18:23.065Z,1.92
2019-05-22T04:20:52.599Z,1.98
2019-05-22T04:23:22.757Z,2.00
2019-05-22T04:25:53.458Z,1.70
2019-05-22T04:28:22.466Z,1.58
2019-05-22T04:30:52.497Z,1.95
2019-05-22T04:33:22.274Z,2.30
2019-05-22T04:35:51.916Z,1.70
2019-05-22T04:38:21.430Z,1.90
2019-05-22T04:40:51.292Z,1.70
2019-05-22T04:43:21.151Z,1.70
2019-05-22T04:45:51.527Z,1.62
2019-05-22T04:48:21.323Z,1.58
2019-05-22T04:50:50.617Z,1.70
2019-05-22T04:53:20.022Z,1.92
2019-05-22T04:55:49.280Z,1.70
2019-05-22T04:58:19.056Z,1.62
2019-05-22T05:00:48.627Z,1.60
2019-05-22T05:03:18.295Z,2.05
2019-05-22T05:05:50.001Z,1.77
2019-05-22T05:08:19.977Z,1.60
2019-05-22T05:10:49.917Z,1.62
2019-05-22T05:13:19.865Z,1.60
2019-05-22T05:15:49.346Z,1.75
2019-05-22T05:18:18.912Z,1.60
2019-05-22T05:20:48.705Z,1.83
2019-05-22T05:23:17.991Z,1.70
2019-05-22T05:25:47.624Z,1.70
2019-05-22T05:28:17.581Z,1.70
2019-05-22T05:30:47.301Z,1.73
2019-05-22T05:33:16.851Z,1.70
2019-05-22T05:35:47.612Z,1.80
2019-05-22T05:38:17.952Z,1.42
2019-05-22T05:40:47.868Z,1.70
2019-05-22T05:43:17.444Z,1.67
2019-05-22T05:45:47.619Z,1.73
2019-05-22T05:48:17.913Z,1.42
2019-05-22T05:50:58.347Z,1.83
2019-05-22T05:53:29.193Z,1.73
2019-05-22T05:56:06.770Z,1.77
2019-05-22T05:58:36.896Z,1.60
2019-05-22T06:01:09.092Z,2.17
2019-05-22T06:03:39.870Z,1.60
2019-05-22T06:09:11.599Z,1.90
2019-05-22T06:11:44.870Z,1.77
2019-05-22T06:14:29.815Z,1.60
2019-05-22T06:20:17.881Z,2.13
2019-05-22T06:25:42.067Z,2.13
2019-05-22T06:28:12.380Z,2.00
2019-05-22T06:30:42.549Z,1.70
2019-05-22T06:33:28.763Z,1.73
2019-05-22T06:35:58.140Z,1.87
2019-05-22T06:38:51.196Z,1.58
2019-05-22T06:41:20.742Z,2.10
2019-05-22T06:44:01.438Z,2.00
2019-05-22T06:46:45.968Z,1.83
2019-05-22T06:49:37.776Z,1.83
2019-05-22T06:52:08.029Z,2.08
2019-05-22T06:54:38.116Z,1.80
2019-05-22T06:57:07.901Z,1.85
2019-05-22T06:59:37.730Z,2.05
2019-05-22T07:02:07.544Z,1.90
2019-05-22T07:04:37.675Z,1.62
2019-05-22T07:07:11.539Z,2.00
2019-05-22T07:09:37.754Z,2.10
2019-05-22T07:12:07.108Z,2.08
2019-05-22T07:14:38.963Z,1.67
2019-05-22T07:17:08.298Z,1.75
2019-05-22T07:19:38.300Z,1.80
2019-05-22T07:22:08.536Z,2.05
2019-05-22T07:24:38.140Z,1.45
2019-05-22T07:27:29.043Z,1.50
2019-05-22T07:29:58.565Z,2.00
2019-05-22T07:32:30.900Z,1.75
2019-05-22T07:34:58.130Z,1.75
2019-05-22T07:37:28.404Z,1.70
2019-05-22T07:39:57.923Z,1.58
2019-05-22T07:42:27.139Z,1.77
2019-05-22T07:44:56.307Z,1.50
2019-05-22T07:47:27.022Z,1.70
2019-05-22T07:49:57.656Z,1.80
2019-05-22T07:52:27.532Z,1.70
2019-05-22T07:54:57.216Z,1.80
2019-05-22T07:57:26.885Z,1.62
2019-05-22T07:59:56.376Z,2.25
2019-05-22T08:02:26.359Z,1.70
2019-05-22T08:04:56.155Z,1.87
2019-05-22T08:07:25.970Z,1.80
2019-05-22T08:09:55.135Z,1.70
2019-05-22T08:12:25.097Z,1.80
2019-05-22T08:14:55.008Z,1.65
2019-05-22T08:17:24.647Z,1.80
2019-05-22T08:19:54.845Z,1.62
2019-05-22T08:22:24.246Z,1.87
2019-05-22T08:24:53.773Z,1.87
2019-05-22T08:27:23.586Z,1.75
2019-05-22T08:29:56.725Z,1.90
2019-05-22T08:32:23.732Z,1.80
2019-05-22T08:34:52.988Z,1.67
2019-05-22T08:37:23.015Z,1.65
2019-05-22T08:39:53.401Z,1.87
2019-05-22T08:42:23.050Z,1.90
2019-05-22T08:44:52.748Z,1.73
2019-05-22T08:47:22.344Z,2.08
2019-05-22T08:49:52.272Z,1.83
2019-05-22T08:52:24.016Z,1.98
2019-05-22T08:54:52.026Z,1.77
2019-05-22T08:57:21.685Z,1.73
2019-05-22T08:59:51.135Z,1.75
2019-05-22T09:02:21.706Z,1.80
2019-05-22T09:04:51.454Z,1.87
2019-05-22T09:07:21.142Z,2.00
2019-05-22T09:09:50.471Z,2.03
2019-05-22T09:12:20.226Z,1.90
2019-05-22T09:14:50.044Z,2.03
2019-05-22T09:17:20.062Z,1.80
2019-05-22T09:19:49.534Z,1.98
2019-05-22T09:22:19.732Z,1.90
2019-05-22T09:24:49.292Z,1.90
2019-05-22T09:27:19.019Z,2.05
2019-05-22T09:29:48.887Z,2.05
2019-05-22T09:32:18.382Z,1.80
2019-05-22T09:34:48.820Z,1.70
2019-05-22T09:37:18.707Z,1.67
2019-05-22T09:39:48.205Z,1.80
2019-05-22T09:42:17.836Z,2.00
2019-05-22T09:44:47.964Z,1.60
2019-05-22T09:47:18.704Z,1.67
2019-05-22T09:49:48.713Z,1.75
2019-05-22T09:52:18.510Z,1.80
2019-05-22T09:54:49.187Z,1.92
2019-05-22T09:57:18.731Z,1.70
2019-05-22T09:59:48.077Z,1.62
2019-05-22T10:02:17.749Z,1.50
2019-05-22T10:04:47.141Z,2.10
2019-05-22T10:07:16.433Z,1.98
2019-05-22T10:09:45.775Z,1.60
2019-05-22T10:12:15.962Z,1.70
2019-05-22T10:14:45.630Z,1.75
2019-05-22T10:17:15.737Z,2.00
2019-05-22T10:19:46.059Z,1.77
2019-05-22T10:22:16.125Z,2.12
2019-05-22T10:24:49.940Z,1.50
2019-05-22T10:27:15.831Z,1.70
2019-05-22T10:29:45.141Z,1.80
2019-05-22T10:32:15.099Z,1.60
2019-05-22T10:34:44.983Z,1.70
2019-05-22T10:37:14.562Z,1.90
2019-05-22T10:39:44.174Z,1.58
2019-05-22T10:42:13.742Z,1.75
2019-05-22T10:44:43.965Z,1.70
2019-05-22T10:47:13.769Z,1.70
2019-05-22T10:49:43.485Z,1.90
2019-05-22T10:52:13.251Z,1.60
2019-05-22T10:54:42.726Z,1.80
2019-05-22T10:57:12.928Z,1.58
2019-05-22T10:59:42.387Z,1.70
2019-05-22T11:02:12.609Z,1.63
2019-05-22T11:04:42.654Z,1.63
2019-05-22T11:07:12.422Z,1.70
2019-05-22T11:09:41.997Z,2.13
2019-05-22T11:12:12.907Z,1.80
2019-05-22T11:14:42.515Z,1.83
2019-05-22T11:17:12.224Z,1.77
2019-05-22T11:19:42.726Z,1.93
2019-05-22T11:22:13.024Z,2.07
2019-05-22T11:24:42.521Z,2.10
2019-05-22T11:27:12.083Z,2.00
2019-05-22T11:29:41.785Z,2.00
2019-05-22T11:32:11.821Z,1.90
2019-05-22T11:34:42.643Z,2.03
2019-05-22T11:37:12.148Z,1.90
2019-05-22T11:39:44.908Z,1.80
2019-05-22T11:42:11.660Z,1.90
2019-05-22T11:44:41.305Z,1.70
2019-05-22T11:47:11.026Z,1.90
2019-05-22T11:49:41.587Z,1.70
2019-05-22T11:52:12.330Z,1.67
2019-05-22T11:54:42.035Z,1.93
2019-05-22T11:57:13.497Z,1.93
2019-05-22T11:59:43.119Z,1.83
2019-05-22T12:02:12.807Z,1.77
2019-05-22T12:04:47.914Z,1.90
2019-05-22T12:07:13.503Z,1.90
2019-05-22T12:09:42.974Z,1.80
2019-05-22T12:12:12.677Z,1.70
2019-05-22T12:14:42.453Z,1.80
2019-05-22T12:17:12.429Z,1.80
2019-05-22T12:19:42.020Z,2.10
2019-05-22T12:22:11.353Z,1.90
2019-05-22T12:24:40.985Z,1.80
2019-05-22T12:27:11.309Z,1.93
2019-05-22T12:29:42.207Z,1.90
2019-05-22T12:32:11.907Z,1.90
2019-05-22T12:34:41.497Z,1.80
2019-05-22T12:37:11.087Z,1.87
2019-05-22T12:39:41.156Z,2.00
2019-05-22T12:42:11.385Z,1.80
2019-05-22T12:44:40.928Z,1.80
2019-05-22T12:47:11.195Z,2.00
2019-05-22T12:49:40.935Z,1.70
2019-05-22T12:52:10.625Z,1.87
2019-05-22T12:54:47.163Z,1.60
2019-05-22T12:57:09.708Z,1.60
2019-05-22T12:59:39.836Z,1.50
2019-05-22T13:02:10.161Z,2.00
2019-05-22T13:04:39.880Z,1.90
2019-05-22T13:07:09.599Z,2.00
2019-05-22T13:09:39.018Z,1.83
2019-05-22T13:12:08.847Z,1.60
2019-05-22T13:14:38.410Z,1.70
2019-05-22T13:17:08.917Z,1.70
2019-05-22T13:19:38.654Z,1.90
2019-05-22T13:22:08.863Z,1.55
2019-05-22T13:24:38.987Z,1.70
2019-05-22T13:27:09.065Z,1.65
2019-05-22T13:29:38.983Z,2.03
2019-05-22T13:32:08.691Z,1.52
2019-05-22T13:34:39.011Z,1.60
2019-05-22T13:37:08.642Z,1.73
2019-05-22T13:39:38.277Z,2.03
2019-05-22T13:42:08.331Z,1.90
2019-05-22T13:44:38.441Z,1.75
2019-05-22T13:47:08.176Z,1.83
2019-05-22T13:49:38.905Z,1.83
2019-05-22T13:52:08.808Z,1.75
2019-05-22T13:54:38.094Z,2.10
2019-05-22T13:57:07.835Z,2.80
2019-05-22T13:59:37.174Z,2.55
2019-05-22T14:02:07.081Z,2.65
2019-05-22T14:04:36.984Z,2.60
2019-05-22T14:07:06.929Z,2.97
2019-05-22T14:09:36.595Z,3.12
2019-05-22T14:12:06.255Z,2.72
2019-05-22T14:14:35.984Z,2.90
2019-05-22T14:17:05.955Z,3.20
2019-05-22T14:19:35.949Z,2.85
2019-05-22T14:22:05.618Z,3.00
2019-05-22T14:24:35.120Z,2.65
2019-05-22T14:27:05.516Z,2.60
2019-05-22T14:29:34.878Z,2.70
2019-05-22T14:32:05.371Z,2.42
2019-05-22T14:34:34.878Z,2.83
2019-05-22T14:37:04.510Z,2.75
2019-05-22T14:39:34.258Z,2.83
2019-05-22T14:42:04.851Z,3.25
2019-05-22T14:44:34.497Z,2.50
2019-05-22T14:47:13.117Z,2.85
2019-05-22T14:49:33.809Z,2.72
2019-05-22T14:52:03.742Z,2.80
2019-05-22T14:54:33.092Z,2.70
2019-05-22T14:57:02.375Z,3.10
2019-05-22T14:59:32.164Z,3.30
2019-05-22T15:02:01.819Z,3.92
2019-05-22T15:04:31.760Z,3.65
2019-05-22T15:07:02.574Z,3.40
2019-05-22T15:09:32.609Z,3.15
2019-05-22T15:12:02.359Z,3.37
2019-05-22T15:14:31.853Z,4.10
2019-05-22T15:17:01.544Z,3.75
2019-05-22T15:19:31.506Z,4.03
2019-05-22T15:22:01.178Z,3.60
2019-05-22T15:24:30.838Z,4.45
2019-05-22T15:27:00.360Z,3.60
2019-05-22T15:29:29.864Z,3.62
2019-05-22T15:32:00.917Z,3.80
2019-05-22T15:34:31.306Z,3.45
2019-05-22T15:37:01.196Z,3.25
2019-05-22T15:39:31.051Z,3.12
2019-05-22T15:42:00.460Z,3.03
2019-05-22T15:44:30.686Z,3.00
2019-05-22T15:46:59.840Z,2.30
2019-05-22T15:49:29.435Z,2.67
2019-05-22T15:51:59.922Z,2.62
2019-05-22T15:54:29.762Z,2.60
2019-05-22T15:56:59.603Z,2.42
2019-05-22T15:59:29.285Z,2.08
2019-05-22T16:01:59.187Z,1.80
2019-05-22T16:04:29.258Z,1.80
2019-05-22T16:06:59.249Z,2.10
2019-05-22T16:09:29.423Z,2.10
2019-05-22T16:11:59.423Z,2.12
2019-05-22T16:14:29.437Z,1.70
2019-05-22T16:16:59.248Z,1.90
2019-05-22T16:19:28.798Z,1.65
2019-05-22T16:21:59.436Z,1.90
2019-05-22T16:24:29.143Z,1.80
2019-05-22T16:26:58.983Z,2.10
2019-05-22T16:29:29.308Z,1.80
2019-05-22T16:32:00.836Z,2.30
2019-05-22T16:34:31.085Z,1.90
2019-05-22T16:37:03.647Z,2.42
2019-05-22T16:39:31.555Z,2.53
2019-05-22T16:42:01.190Z,2.35
2019-05-22T16:44:30.920Z,2.10
2019-05-22T16:47:01.513Z,2.03
2019-05-22T16:49:30.848Z,2.20
2019-05-22T16:52:00.399Z,2.35
2019-05-22T16:54:30.112Z,2.08
2019-05-22T16:57:00.023Z,2.20
2019-05-22T16:59:29.577Z,2.30
2019-05-22T17:02:00.503Z,2.40
2019-05-22T17:04:29.256Z,2.22
2019-05-22T17:06:59.223Z,2.00
2019-05-22T17:09:28.962Z,2.10
2019-05-22T17:11:59.656Z,1.90
2019-05-22T17:14:31.602Z,1.95
2019-05-22T17:17:01.330Z,1.92
2019-05-22T17:19:31.054Z,2.28
2019-05-22T17:22:01.129Z,2.20
2019-05-22T17:24:34.003Z,2.05
2019-05-22T17:27:00.178Z,2.25
2019-05-22T17:29:29.927Z,2.03
2019-05-22T17:31:59.506Z,1.90
2019-05-22T17:34:31.949Z,2.28
2019-05-22T17:37:01.995Z,2.40
2019-05-22T17:39:32.293Z,2.25
2019-05-22T17:42:02.485Z,2.03
2019-05-22T17:44:32.103Z,2.42
2019-05-22T17:47:01.902Z,2.60
2019-05-22T17:49:31.593Z,2.40
2019-05-22T17:52:01.415Z,2.28
2019-05-22T17:54:30.757Z,2.20
2019-05-22T17:57:00.165Z,2.35
2019-05-22T17:59:29.639Z,2.10
2019-05-22T18:01:58.972Z,2.15
2019-05-22T18:04:28.953Z,2.33
2019-05-22T18:06:58.715Z,2.53
2019-05-22T18:09:28.639Z,2.50
2019-05-22T18:11:58.769Z,2.60
2019-05-22T18:14:28.398Z,2.70
2019-05-22T18:16:57.874Z,3.05
2019-05-22T18:19:27.713Z,2.33
2019-05-22T18:21:57.993Z,2.70
2019-05-22T18:24:27.621Z,2.47
2019-05-22T18:26:57.674Z,2.40
2019-05-22T18:29:27.393Z,2.45
2019-05-22T18:31:57.018Z,2.25
2019-05-22T18:34:26.458Z,2.62
2019-05-22T18:36:55.918Z,2.53
2019-05-22T18:39:24.878Z,3.15
2019-05-22T18:41:55.401Z,3.00
2019-05-22T18:44:26.784Z,3.03
2019-05-22T18:46:56.060Z,3.17
2019-05-22T18:49:25.541Z,3.50
2019-05-22T18:51:55.584Z,3.10
2019-05-22T18:54:25.152Z,3.30
2019-05-22T18:56:54.681Z,3.40
2019-05-22T18:59:24.067Z,3.50
2019-05-22T19:01:53.952Z,3.50
2019-05-22T19:04:23.272Z,3.40
2019-05-22T19:06:55.893Z,3.22
2019-05-22T19:09:22.550Z,3.08
2019-05-22T19:11:52.530Z,3.47
2019-05-22T19:14:22.778Z,3.12
2019-05-22T19:16:52.263Z,2.60
2019-05-22T19:19:21.704Z,2.92
2019-05-22T19:21:51.076Z,3.20
2019-05-22T19:24:20.499Z,2.20
2019-05-22T19:26:50.108Z,2.40
2019-05-22T19:29:19.713Z,2.65
2019-05-22T19:31:49.451Z,2.55
2019-05-22T19:34:18.531Z,2.47
2019-05-22T19:36:48.218Z,2.60
2019-05-22T19:39:17.791Z,2.58
2019-05-22T19:42:01.519Z,2.60
2019-05-22T19:44:18.139Z,2.47
2019-05-22T19:46:47.956Z,2.42
2019-05-22T19:49:17.848Z,2.55
2019-05-22T19:51:47.667Z,2.40
2019-05-22T19:54:17.206Z,2.55
2019-05-22T19:56:46.820Z,2.80
2019-05-22T19:59:16.353Z,3.30
2019-05-22T20:01:45.575Z,3.50
2019-05-22T20:04:14.925Z,3.03
2019-05-22T20:06:45.584Z,3.20
2019-05-22T20:09:15.543Z,3.20
2019-05-22T20:11:44.740Z,3.00
2019-05-22T20:14:14.487Z,2.72
2019-05-22T20:16:44.166Z,2.85
2019-05-22T20:19:13.629Z,2.40
2019-05-22T20:21:43.138Z,2.15
2019-05-22T20:24:12.567Z,2.08
2019-05-22T20:26:42.190Z,2.12
2019-05-22T20:29:11.988Z,2.00
2019-05-22T20:31:42.220Z,1.77
2019-05-22T20:34:12.660Z,1.80
2019-05-22T20:36:43.244Z,1.48
2019-05-22T20:39:16.962Z,2.10
2019-05-22T20:41:46.700Z,1.67
2019-05-22T20:44:16.079Z,1.37
2019-05-22T20:46:46.670Z,1.58
2019-05-22T20:49:16.886Z,1.50
2019-05-22T20:51:46.476Z,1.50
2019-05-22T20:54:16.580Z,1.50
2019-05-22T20:56:47.301Z,1.62
2019-05-22T20:59:17.148Z,1.37
2019-05-22T21:01:46.761Z,1.70
2019-05-22T21:04:17.088Z,1.60
2019-05-22T21:07:00.101Z,1.58
2019-05-22T21:09:28.538Z,1.62
2019-05-22T21:11:58.230Z,1.60
2019-05-22T21:14:28.434Z,1.50
2019-05-22T21:16:57.963Z,1.30
2019-05-22T21:19:27.809Z,1.10
2019-05-22T21:21:58.097Z,1.30
2019-05-22T21:24:28.542Z,1.48
2019-05-22T21:26:57.778Z,1.40
2019-05-22T21:29:27.331Z,1.35
2019-05-22T21:31:57.579Z,1.20
2019-05-22T21:34:27.288Z,1.10
2019-05-22T21:36:56.924Z,1.30
2019-05-22T21:39:26.254Z,1.30
2019-05-22T21:41:55.910Z,1.30
2019-05-22T21:44:27.139Z,1.40
2019-05-22T21:46:57.372Z,1.48
2019-05-22T21:49:26.854Z,1.40
2019-05-22T21:51:56.267Z,1.50
2019-05-22T21:54:25.902Z,1.40
2019-05-22T21:56:55.676Z,1.60
2019-05-22T21:59:24.990Z,1.30
2019-05-22T22:01:57.827Z,1.60
2019-05-22T22:04:27.536Z,1.50
2019-05-22T22:06:56.899Z,1.30
2019-05-22T22:09:28.254Z,1.40
2019-05-22T22:11:58.238Z,1.35
2019-05-22T22:14:29.410Z,1.40
2019-05-22T22:17:00.876Z,1.50
2019-05-22T22:19:30.811Z,1.60
2019-05-22T22:22:00.621Z,1.40
2019-05-22T22:24:30.194Z,1.48
2019-05-22T22:26:59.554Z,1.60
2019-05-22T22:29:28.908Z,1.70
2019-05-22T22:31:59.359Z,1.20
2019-05-22T22:34:29.895Z,1.40
2019-05-22T22:36:59.657Z,1.25
2019-05-22T22:39:30.028Z,1.23
2019-05-22T22:42:00.200Z,1.00
2019-05-22T22:44:29.707Z,1.20
2019-05-22T22:47:00.353Z,1.20
2019-05-22T22:49:29.769Z,1.23
2019-05-22T22:51:59.607Z,1.30
2019-05-22T22:54:29.316Z,1.30
2019-05-22T22:56:59.251Z,1.25
2019-05-22T22:59:28.684Z,1.33
2019-05-22T23:01:58.435Z,1.50
2019-05-22T23:04:29.486Z,1.40
2019-05-22T23:06:59.606Z,1.70
2019-05-22T23:09:29.310Z,1.37
2019-05-22T23:11:59.040Z,1.45
2019-05-22T23:14:29.087Z,1.50
2019-05-22T23:16:58.963Z,1.40
2019-05-22T23:19:33.798Z,3.75
2019-05-22T23:22:02.963Z,1.75
2019-05-22T23:24:34.169Z,1.75
2019-05-22T23:27:03.506Z,4.30
2019-05-22T23:29:33.281Z,2.85
2019-05-22T23:32:03.140Z,2.05
2019-05-22T23:34:32.519Z,1.50
2019-05-22T23:37:02.866Z,1.45
2019-05-22T23:39:33.531Z,1.20
2019-05-22T23:42:03.418Z,1.60
2019-05-22T23:44:33.547Z,1.50
2019-05-22T23:47:03.227Z,1.35
2019-05-22T23:49:33.444Z,1.40
2019-05-22T23:52:02.812Z,1.37
2019-05-22T23:54:32.283Z,1.02
2019-05-22T23:57:02.405Z,1.58
2019-05-22T23:59:32.461Z,1.27
